Wetterdaten: Woche 04.07.16 - 10.07.16 (KW27)
Datum Zeit Temp. A. Feuchte A. Luftdruck Regen Wind Richtung Sonnenschein ET UV Solar Taupunkt Windchill Windben Empfang
04.07.2016 00:00 15,9 C 78 % 1021,7 hPa 0,0 l/m 4,0 km/h (1 Bft) S-SW 0,00 h 0,000 mm 0,0 UV-I 0 W/m 12,0 C 15,9 C 6,2 km/h (2 Bft) 95,23 %
04.07.2016 01:00 15,8 C 79 % 1021,6 hPa 0,0 l/m 2,6 km/h (1 Bft) S-SW 0,00 h 0,025 mm 0,0 UV-I 0 W/m 12,1 C 15,8 C 4,2 km/h (1 Bft) 97,12 %
04.07.2016 02:00 15,4 C 84 % 1021,5 hPa 0,0 l/m 2,4 km/h (1 Bft) S-SW 0,00 h 0,000 mm 0,0 UV-I 0 W/m 12,7 C 15,4 C 3,9 km/h (1 Bft) 99,34 %
04.07.2016 03:00 15,1 C 86 % 1021,3 hPa 0,0 l/m 2,0 km/h (1 Bft) S-SW 0,00 h 0,000 mm 0,0 UV-I 0 W/m 12,9 C 15,1 C 3,6 km/h (1 Bft) 97,40 %
04.07.2016 04:00 14,8 C 88 % 1021,1 hPa 0,0 l/m 2,5 km/h (1 Bft) S-SW 0,00 h 0,000 mm 0,0 UV-I 0 W/m 12,8 C 14,8 C 4,2 km/h (1 Bft) 99,71 %
04.07.2016 05:00 13,9 C 90 % 1021,1 hPa 0,0 l/m 1,7 km/h (1 Bft) S-SW 0,00 h 0,000 mm 0,0 UV-I 12 W/m 12,3 C 13,9 C 3,2 km/h (1 Bft) 97,24 %
04.07.2016 06:00 13,9 C 91 % 1021,1 hPa 0,0 l/m 0,8 km/h (0 Bft) S-SW 0,23 h 0,000 mm 0,0 UV-I 73 W/m 12,4 C 13,9 C 2,1 km/h (1 Bft) 99,72 %
04.07.2016 07:00 16,1 C 81 % 1021,3 hPa 0,0 l/m 1,5 km/h (1 Bft) S-SW 0,73 h 0,051 mm 0,6 UV-I 227 W/m 12,7 C 16,1 C 3,1 km/h (1 Bft) 97,55 %
04.07.2016 08:00 17,3 C 74 % 1021,1 hPa 0,0 l/m 2,1 km/h (1 Bft) O-NO 0,67 h 0,127 mm 1,3 UV-I 289 W/m 12,5 C 17,3 C 4,4 km/h (1 Bft) 99,10 %
04.07.2016 09:00 18,6 C 64 % 1021,0 hPa 0,0 l/m 2,5 km/h (1 Bft) N-NO 0,80 h 0,178 mm 2,7 UV-I 453 W/m 11,6 C 18,6 C 5,6 km/h (1 Bft) 97,79 %
04.07.2016 10:00 19,7 C 59 % 1020,8 hPa 0,0 l/m 4,9 km/h (1 Bft) NO 1,00 h 0,305 mm 4,3 UV-I 693 W/m 11,4 C 19,6 C 9,3 km/h (2 Bft) 98,93 %
04.07.2016 11:00 20,8 C 60 % 1020,6 hPa 0,0 l/m 3,8 km/h (1 Bft) NO 0,90 h 0,406 mm 5,6 UV-I 778 W/m 12,7 C 20,8 C 7,3 km/h (2 Bft) 97,37 %
04.07.2016 12:00 21,6 C 57 % 1020,1 hPa 0,0 l/m 3,4 km/h (1 Bft) N-NW 0,83 h 0,457 mm 6,1 UV-I 756 W/m 12,7 C 21,6 C 7,3 km/h (2 Bft) 98,62 %
04.07.2016 13:00 21,7 C 58 % 1019,7 hPa 0,0 l/m 3,4 km/h (1 Bft) N-NO 0,53 h 0,483 mm 4,7 UV-I 531 W/m 13,0 C 21,6 C 7,3 km/h (2 Bft) 97,85 %
04.07.2016 14:00 22,4 C 53 % 1019,3 hPa 0,0 l/m 3,1 km/h (1 Bft) N-NO 1,00 h 0,356 mm 5,4 UV-I 639 W/m 12,2 C 22,4 C 6,1 km/h (2 Bft) 98,51 %
04.07.2016 15:00 23,3 C 52 % 1018,8 hPa 0,0 l/m 3,3 km/h (1 Bft) NO 0,90 h 0,457 mm 4,7 UV-I 720 W/m 12,9 C 23,3 C 6,3 km/h (2 Bft) 97,99 %
04.07.2016 16:00 23,7 C 51 % 1018,1 hPa 0,0 l/m 3,6 km/h (1 Bft) W-NW 0,97 h 0,457 mm 3,5 UV-I 664 W/m 13,1 C 23,7 C 6,8 km/h (2 Bft) 98,14 %
04.07.2016 17:00 23,4 C 55 % 1017,8 hPa 0,0 l/m 2,1 km/h (1 Bft) N-NO 0,60 h 0,432 mm 1,7 UV-I 376 W/m 13,7 C 23,4 C 4,2 km/h (1 Bft) 98,22 %
04.07.2016 18:00 23,8 C 53 % 1017,7 hPa 0,0 l/m 2,6 km/h (1 Bft) N-NO 1,00 h 0,254 mm 0,9 UV-I 395 W/m 13,7 C 23,8 C 5,3 km/h (1 Bft) 97,81 %
04.07.2016 19:00 23,3 C 53 % 1017,6 hPa 0,0 l/m 1,7 km/h (1 Bft) W 0,77 h 0,254 mm 0,5 UV-I 142 W/m 13,3 C 23,3 C 3,8 km/h (1 Bft) 98,75 %
04.07.2016 20:00 21,9 C 61 % 1017,5 hPa 0,0 l/m 0,4 km/h (0 Bft) W 0,07 h 0,101 mm 0,0 UV-I 35 W/m 13,9 C 21,9 C 1,5 km/h (1 Bft) 96,58 %
04.07.2016 21:00 18,5 C 75 % 1017,6 hPa 0,0 l/m 0,7 km/h (0 Bft) W 0,00 h 0,026 mm 0,0 UV-I 6 W/m 14,1 C 18,5 C 1,8 km/h (1 Bft) 98,51 %
04.07.2016 22:00 17,1 C 79 % 1017,7 hPa 0,0 l/m 1,9 km/h (1 Bft) W 0,00 h 0,000 mm 0,0 UV-I 0 W/m 13,3 C 17,1 C 3,1 km/h (1 Bft) 98,00 %
04.07.2016 23:00 16,3 C 82 % 1017,8 hPa 0,0 l/m 1,5 km/h (1 Bft) SW 0,00 h 0,000 mm 0,0 UV-I 0 W/m 13,1 C 16,3 C 2,9 km/h (1 Bft) 99,22 %
05.07.2016 00:00 15,9 C 85 % 1017,8 hPa 0,0 l/m 3,0 km/h (1 Bft) S 0,00 h 0,000 mm 0,0 UV-I 0 W/m 13,3 C 15,9 C 4,9 km/h (1 Bft) 98,01 %
05.07.2016 01:00 15,0 C 87 % 1017,5 hPa 0,0 l/m 1,0 km/h (0 Bft) S 0,00 h 0,000 mm 0,0 UV-I 0 W/m 12,9 C 15,0 C 2,0 km/h (1 Bft) 99,37 %
05.07.2016 02:00 13,9 C 92 % 1017,2 hPa 0,0 l/m 0,5 km/h (0 Bft) S 0,00 h 0,000 mm 0,0 UV-I 0 W/m 12,5 C 13,9 C 0,9 km/h (0 Bft) 98,30 %
05.07.2016 03:00 13,4 C 92 % 1016,8 hPa 0,0 l/m 0,1 km/h (0 Bft) N 0,00 h 0,000 mm 0,0 UV-I 0 W/m 12,1 C 13,4 C 0,6 km/h (0 Bft) 99,37 %
05.07.2016 04:00 12,8 C 93 % 1016,0 hPa 0,0 l/m 0,1 km/h (0 Bft) N 0,00 h 0,000 mm 0,0 UV-I 0 W/m 11,7 C 12,8 C 0,6 km/h (0 Bft) 98,27 %
05.07.2016 05:00 12,5 C 93 % 1015,8 hPa 0,0 l/m 0,1 km/h (0 Bft) S 0,03 h 0,000 mm 0,0 UV-I 13 W/m 11,5 C 12,5 C 0,4 km/h (0 Bft) 98,66 %
05.07.2016 06:00 13,6 C 93 % 1015,8 hPa 0,0 l/m 0,3 km/h (0 Bft) S 0,10 h 0,000 mm 0,0 UV-I 60 W/m 12,5 C 13,6 C 1,1 km/h (1 Bft) 96,80 %
05.07.2016 07:00 16,0 C 88 % 1015,7 hPa 0,0 l/m 2,7 km/h (1 Bft) N-NO 1,00 h 0,025 mm 0,8 UV-I 250 W/m 14,1 C 16,0 C 4,7 km/h (1 Bft) 98,55 %
05.07.2016 08:00 18,1 C 82 % 1015,4 hPa 0,0 l/m 3,5 km/h (1 Bft) NO 1,00 h 0,153 mm 1,6 UV-I 436 W/m 14,9 C 18,1 C 6,1 km/h (2 Bft) 97,81 %
05.07.2016 09:00 20,2 C 76 % 1015,2 hPa 0,0 l/m 2,6 km/h (1 Bft) NO 0,93 h 0,254 mm 3,0 UV-I 526 W/m 15,7 C 20,2 C 5,8 km/h (2 Bft) 98,87 %
05.07.2016 10:00 21,7 C 72 % 1015,0 hPa 0,0 l/m 3,1 km/h (1 Bft) N-NO 0,90 h 0,305 mm 4,4 UV-I 666 W/m 16,5 C 21,7 C 6,5 km/h (2 Bft) 97,15 %
05.07.2016 11:00 23,5 C 64 % 1014,7 hPa 0,0 l/m 3,1 km/h (1 Bft) NW 1,00 h 0,431 mm 6,0 UV-I 808 W/m 16,3 C 23,5 C 5,8 km/h (2 Bft) 99,16 %
05.07.2016 12:00 24,5 C 55 % 1014,5 hPa 0,0 l/m 2,8 km/h (1 Bft) NW 1,00 h 0,508 mm 6,9 UV-I 956 W/m 14,9 C 24,5 C 6,7 km/h (2 Bft) 97,85 %
05.07.2016 13:00 25,5 C 50 % 1014,0 hPa 0,0 l/m 3,5 km/h (1 Bft) W 0,70 h 0,585 mm 6,1 UV-I 727 W/m 14,3 C 25,5 C 7,2 km/h (2 Bft) 98,58 %
05.07.2016 14:00 26,6 C 48 % 1013,4 hPa 0,0 l/m 5,2 km/h (1 Bft) W-SW 1,00 h 0,508 mm 6,3 UV-I 843 W/m 14,6 C 26,5 C 10,1 km/h (2 Bft) 89,38 %
05.07.2016 15:00 26,8 C 51 % 1012,7 hPa 0,0 l/m 3,8 km/h (1 Bft) NW 0,83 h 0,584 mm 4,6 UV-I 692 W/m 15,7 C 26,8 C 8,5 km/h (2 Bft) 88,21 %
05.07.2016 16:00 27,6 C 45 % 1012,0 hPa 0,0 l/m 8,8 km/h (2 Bft) W-SW 0,97 h 0,482 mm 3,3 UV-I 635 W/m 14,4 C 27,0 C 14,7 km/h (3 Bft) 98,13 %
05.07.2016 17:00 27,3 C 45 % 1011,5 hPa 0,0 l/m 8,4 km/h (2 Bft) W-SW 0,80 h 0,483 mm 1,8 UV-I 414 W/m 14,3 C 26,9 C 15,2 km/h (3 Bft) 99,42 %
05.07.2016 18:00 26,9 C 47 % 1011,3 hPa 0,0 l/m 6,4 km/h (2 Bft) W-SW 0,93 h 0,330 mm 0,9 UV-I 327 W/m 14,6 C 26,8 C 12,4 km/h (3 Bft) 98,00 %
05.07.2016 19:00 26,3 C 49 % 1011,0 hPa 0,0 l/m 5,3 km/h (1 Bft) W-SW 1,00 h 0,254 mm 0,4 UV-I 181 W/m 14,8 C 26,3 C 11,1 km/h (2 Bft) 99,02 %
05.07.2016 20:00 24,9 C 52 % 1011,3 hPa 0,0 l/m 4,6 km/h (1 Bft) W 0,30 h 0,153 mm 0,0 UV-I 38 W/m 14,4 C 24,8 C 9,7 km/h (2 Bft) 98,33 %
05.07.2016 21:00 23,1 C 60 % 1012,0 hPa 0,0 l/m 2,6 km/h (1 Bft) W 0,00 h 0,076 mm 0,0 UV-I 6 W/m 15,0 C 23,1 C 5,4 km/h (1 Bft) 97,18 %
05.07.2016 22:00 21,5 C 65 % 1012,5 hPa 0,0 l/m 7,0 km/h (2 Bft) W 0,00 h 0,025 mm 0,0 UV-I 0 W/m 14,6 C 20,9 C 12,9 km/h (3 Bft) 98,60 %
05.07.2016 23:00 20,8 C 64 % 1013,3 hPa 0,0 l/m 10,4 km/h (2 Bft) W-SW 0,00 h 0,051 mm 0,0 UV-I 0 W/m 13,7 C 19,4 C 18,8 km/h (3 Bft) 98,51 %
06.07.2016 00:00 19,8 C 65 % 1014,1 hPa 0,0 l/m 12,1 km/h (2 Bft) SW 0,00 h 0,000 mm 0,0 UV-I 0 W/m 13,0 C 17,8 C 18,7 km/h (3 Bft) 98,75 %
06.07.2016 01:00 19,3 C 64 % 1015,0 hPa 0,0 l/m 12,4 km/h (3 Bft) W-SW 0,00 h 0,076 mm 0,0 UV-I 0 W/m 12,2 C 17,2 C 18,6 km/h (3 Bft) 98,59 %
06.07.2016 02:00 17,4 C 75 % 1015,1 hPa 0,0 l/m 9,9 km/h (2 Bft) SW 0,00 h 0,076 mm 0,0 UV-I 0 W/m 12,9 C 15,9 C 15,2 km/h (3 Bft) 98,63 %
06.07.2016 03:00 17,0 C 77 % 1014,9 hPa 0,0 l/m 8,9 km/h (2 Bft) SW 0,00 h 0,026 mm 0,0 UV-I 0 W/m 12,9 C 15,9 C 14,5 km/h (3 Bft) 98,74 %
06.07.2016 04:00 17,2 C 73 % 1014,7 hPa 0,0 l/m 9,0 km/h (2 Bft) S-SW 0,00 h 0,025 mm 0,0 UV-I 0 W/m 12,4 C 16,0 C 14,7 km/h (3 Bft) 98,72 %
06.07.2016 05:00 16,8 C 76 % 1014,9 hPa 0,0 l/m 8,5 km/h (2 Bft) SW 0,00 h 0,026 mm 0,0 UV-I 14 W/m 12,5 C 15,7 C 13,2 km/h (3 Bft) 98,44 %
06.07.2016 06:00 16,7 C 78 % 1015,1 hPa 0,0 l/m 6,0 km/h (2 Bft) SW 0,00 h 0,025 mm 0,0 UV-I 58 W/m 12,9 C 16,6 C 9,1 km/h (2 Bft) 98,59 %
06.07.2016 07:00 17,9 C 71 % 1015,3 hPa 0,0 l/m 7,5 km/h (2 Bft) W-SW 0,33 h 0,051 mm 0,6 UV-I 179 W/m 12,6 C 17,4 C 13,9 km/h (3 Bft) 98,28 %
06.07.2016 08:00 18,4 C 67 % 1015,6 hPa 0,0 l/m 9,5 km/h (2 Bft) W-SW 0,23 h 0,127 mm 1,1 UV-I 250 W/m 12,2 C 17,2 C 16,9 km/h (3 Bft) 98,73 %
06.07.2016 09:00 19,3 C 67 % 1015,7 hPa 0,0 l/m 9,7 km/h (2 Bft) W 0,57 h 0,178 mm 2,3 UV-I 412 W/m 13,0 C 18,0 C 17,1 km/h (3 Bft) 98,42 %
06.07.2016 10:00 19,6 C 66 % 1015,8 hPa 0,0 l/m 11,4 km/h (2 Bft) W 0,23 h 0,279 mm 2,9 UV-I 400 W/m 13,0 C 17,8 C 21,1 km/h (4 Bft) 98,82 %
06.07.2016 11:00 20,5 C 64 % 1016,1 hPa 0,0 l/m 12,3 km/h (3 Bft) W 0,67 h 0,305 mm 5,0 UV-I 750 W/m 13,4 C 18,5 C 21,5 km/h (4 Bft) 98,43 %
06.07.2016 12:00 20,6 C 61 % 1016,5 hPa 0,0 l/m 14,1 km/h (3 Bft) W-SW 0,47 h 0,482 mm 4,8 UV-I 612 W/m 12,9 C 18,4 C 25,9 km/h (4 Bft) 98,08 %
06.07.2016 13:00 20,9 C 59 % 1016,6 hPa 0,0 l/m 17,4 km/h (3 Bft) W-SW 0,53 h 0,483 mm 5,1 UV-I 595 W/m 12,4 C 17,9 C 28,1 km/h (4 Bft) 97,86 %
06.07.2016 14:00 21,4 C 53 % 1016,5 hPa 0,0 l/m 20,1 km/h (4 Bft) W-SW 0,53 h 0,508 mm 4,5 UV-I 583 W/m 11,3 C 18,0 C 32,4 km/h (5 Bft) 98,53 %
06.07.2016 15:00 21,6 C 50 % 1016,5 hPa 0,0 l/m 17,7 km/h (3 Bft) W-SW 0,37 h 0,508 mm 3,5 UV-I 472 W/m 10,8 C 18,6 C 27,9 km/h (4 Bft) 98,07 %
06.07.2016 16:00 21,6 C 47 % 1016,3 hPa 0,0 l/m 12,4 km/h (3 Bft) W-SW 0,37 h 0,432 mm 2,3 UV-I 360 W/m 10,0 C 20,0 C 21,8 km/h (4 Bft) 99,26 %
06.07.2016 17:00 21,9 C 47 % 1016,3 hPa 0,0 l/m 7,5 km/h (2 Bft) W 0,93 h 0,330 mm 1,8 UV-I 507 W/m 10,1 C 21,4 C 15,1 km/h (3 Bft) 97,81 %
06.07.2016 18:00 21,3 C 47 % 1016,4 hPa 0,0 l/m 5,8 km/h (2 Bft) W 1,00 h 0,356 mm 0,8 UV-I 329 W/m 9,7 C 21,1 C 13,3 km/h (3 Bft) 99,52 %
06.07.2016 19:00 20,5 C 47 % 1016,8 hPa 0,0 l/m 5,6 km/h (1 Bft) W-SW 0,97 h 0,254 mm 0,3 UV-I 163 W/m 8,7 C 20,3 C 13,1 km/h (3 Bft) 98,18 %
06.07.2016 20:00 19,0 C 50 % 1017,2 hPa 0,0 l/m 4,4 km/h (1 Bft) W-SW 0,00 h 0,152 mm 0,0 UV-I 29 W/m 8,3 C 19,0 C 10,2 km/h (2 Bft) 99,20 %
06.07.2016 21:00 17,6 C 54 % 1017,9 hPa 0,0 l/m 4,4 km/h (1 Bft) W-SW 0,00 h 0,051 mm 0,0 UV-I 5 W/m 8,1 C 17,6 C 8,4 km/h (2 Bft) 97,62 %
06.07.2016 22:00 16,6 C 62 % 1018,5 hPa 0,0 l/m 5,3 km/h (1 Bft) W-SW 0,00 h 0,025 mm 0,0 UV-I 0 W/m 9,3 C 16,6 C 8,4 km/h (2 Bft) 99,67 %
06.07.2016 23:00 16,1 C 65 % 1019,1 hPa 0,0 l/m 5,4 km/h (1 Bft) SW 0,00 h 0,026 mm 0,0 UV-I 0 W/m 9,4 C 16,0 C 8,3 km/h (2 Bft) 97,95 %
07.07.2016 00:00 15,8 C 66 % 1019,4 hPa 0,0 l/m 5,3 km/h (1 Bft) S-SW 0,00 h 0,000 mm 0,0 UV-I 0 W/m 9,5 C 15,8 C 8,2 km/h (2 Bft) 99,29 %
07.07.2016 01:00 15,7 C 68 % 1019,4 hPa 0,0 l/m 5,6 km/h (1 Bft) SW 0,00 h 0,025 mm 0,0 UV-I 0 W/m 9,9 C 15,6 C 8,0 km/h (2 Bft) 98,00 %
07.07.2016 02:00 15,4 C 69 % 1019,3 hPa 0,0 l/m 5,0 km/h (1 Bft) SW 0,00 h 0,026 mm 0,0 UV-I 0 W/m 9,8 C 15,4 C 6,8 km/h (2 Bft) 99,49 %
07.07.2016 03:00 15,0 C 72 % 1019,2 hPa 0,0 l/m 4,4 km/h (1 Bft) SW 0,00 h 0,025 mm 0,0 UV-I 0 W/m 10,1 C 15,0 C 6,3 km/h (2 Bft) 97,81 %
07.07.2016 04:00 14,7 C 78 % 1019,5 hPa 0,0 l/m 0,8 km/h (0 Bft) SW 0,00 h 0,026 mm 0,0 UV-I 0 W/m 10,9 C 14,7 C 1,5 km/h (1 Bft) 99,44 %
07.07.2016 05:00 14,5 C 82 % 1019,8 hPa 0,0 l/m 0,2 km/h (0 Bft) SW 0,00 h 0,000 mm 0,0 UV-I 11 W/m 11,4 C 14,5 C 0,8 km/h (0 Bft) 97,94 %
07.07.2016 06:00 13,7 C 84 % 1019,7 hPa 0,0 l/m 0,4 km/h (0 Bft) SW 0,00 h 0,000 mm 0,0 UV-I 31 W/m 11,1 C 13,7 C 1,1 km/h (1 Bft) 99,72 %
07.07.2016 07:00 15,2 C 80 % 1020,0 hPa 0,0 l/m 0,9 km/h (0 Bft) SW 0,77 h 0,025 mm 0,7 UV-I 226 W/m 11,8 C 15,2 C 2,3 km/h (1 Bft) 97,86 %
07.07.2016 08:00 17,7 C 69 % 1020,2 hPa 0,0 l/m 1,5 km/h (1 Bft) W-NW 0,90 h 0,127 mm 1,6 UV-I 456 W/m 12,0 C 17,7 C 3,9 km/h (1 Bft) 99,68 %
07.07.2016 09:00 19,1 C 57 % 1020,2 hPa 0,0 l/m 4,8 km/h (1 Bft) SW 0,93 h 0,254 mm 2,7 UV-I 492 W/m 10,4 C 19,0 C 9,7 km/h (2 Bft) 97,47 %
07.07.2016 10:00 20,1 C 50 % 1020,2 hPa 0,0 l/m 5,5 km/h (1 Bft) W-SW 0,73 h 0,305 mm 3,9 UV-I 636 W/m 9,5 C 19,8 C 10,0 km/h (2 Bft) 99,36 %
07.07.2016 11:00 20,7 C 52 % 1020,3 hPa 0,0 l/m 5,8 km/h (2 Bft) W-SW 0,57 h 0,406 mm 4,4 UV-I 625 W/m 10,4 C 20,3 C 10,7 km/h (2 Bft) 97,98 %
07.07.2016 12:00 21,8 C 48 % 1020,2 hPa 0,0 l/m 6,3 km/h (2 Bft) W 0,83 h 0,432 mm 6,4 UV-I 823 W/m 10,3 C 21,4 C 12,3 km/h (3 Bft) 99,29 %
07.07.2016 13:00 22,4 C 48 % 1019,7 hPa 0,0 l/m 5,0 km/h (1 Bft) W-NW 0,93 h 0,533 mm 6,6 UV-I 900 W/m 10,8 C 22,3 C 11,4 km/h (2 Bft) 96,39 %
07.07.2016 14:00 22,9 C 46 % 1019,2 hPa 0,0 l/m 5,8 km/h (2 Bft) W-SW 1,00 h 0,559 mm 6,1 UV-I 891 W/m 10,8 C 22,7 C 12,5 km/h (3 Bft) 95,49 %
07.07.2016 15:00 23,4 C 44 % 1018,8 hPa 0,0 l/m 4,4 km/h (1 Bft) N-NW 0,93 h 0,559 mm 4,6 UV-I 777 W/m 10,5 C 23,3 C 8,9 km/h (2 Bft) 98,31 %
07.07.2016 16:00 23,3 C 44 % 1018,5 hPa 0,0 l/m 4,5 km/h (1 Bft) NW 0,87 h 0,483 mm 3,1 UV-I 630 W/m 10,4 C 23,2 C 9,1 km/h (2 Bft) 98,88 %
07.07.2016 17:00 23,7 C 44 % 1018,2 hPa 0,0 l/m 4,3 km/h (1 Bft) W 1,00 h 0,431 mm 1,9 UV-I 490 W/m 10,7 C 23,7 C 9,1 km/h (2 Bft) 98,66 %
07.07.2016 18:00 23,0 C 47 % 1018,2 hPa 0,0 l/m 4,0 km/h (1 Bft) NW 1,00 h 0,331 mm 0,8 UV-I 324 W/m 11,0 C 23,0 C 9,2 km/h (2 Bft) 98,46 %
07.07.2016 19:00 22,1 C 49 % 1018,2 hPa 0,0 l/m 2,9 km/h (1 Bft) N-NW 0,90 h 0,228 mm 0,4 UV-I 154 W/m 10,9 C 22,1 C 6,6 km/h (2 Bft) 98,42 %
07.07.2016 20:00 21,0 C 53 % 1018,3 hPa 0,0 l/m 0,8 km/h (0 Bft) NW 0,07 h 0,127 mm 0,0 UV-I 30 W/m 11,1 C 21,0 C 2,3 km/h (1 Bft) 98,75 %
07.07.2016 21:00 17,9 C 68 % 1018,5 hPa 0,0 l/m 0,3 km/h (0 Bft) NW 0,00 h 0,026 mm 0,0 UV-I 5 W/m 11,9 C 17,9 C 1,4 km/h (1 Bft) 98,48 %
07.07.2016 22:00 16,4 C 72 % 1018,5 hPa 0,0 l/m 0,7 km/h (0 Bft) NW 0,00 h 0,000 mm 0,0 UV-I 0 W/m 11,3 C 16,4 C 1,7 km/h (1 Bft) 98,89 %
07.07.2016 23:00 15,3 C 77 % 1018,5 hPa 0,0 l/m 1,6 km/h (1 Bft) W-SW 0,00 h 0,000 mm 0,0 UV-I 0 W/m 11,2 C 15,3 C 2,3 km/h (1 Bft) 98,88 %
08.07.2016 00:00 15,0 C 78 % 1018,7 hPa 0,0 l/m 3,7 km/h (1 Bft) S 0,00 h 0,000 mm 0,0 UV-I 0 W/m 11,2 C 15,0 C 5,3 km/h (1 Bft) 99,00 %
08.07.2016 01:00 14,1 C 82 % 1018,6 hPa 0,0 l/m 1,7 km/h (1 Bft) S-SW 0,00 h 0,025 mm 0,0 UV-I 0 W/m 11,2 C 14,1 C 2,8 km/h (1 Bft) 98,82 %
08.07.2016 02:00 13,1 C 86 % 1018,5 hPa 0,0 l/m 0,5 km/h (0 Bft) S-SW 0,00 h 0,000 mm 0,0 UV-I 0 W/m 10,9 C 13,1 C 1,4 km/h (1 Bft) 99,14 %
08.07.2016 03:00 12,4 C 88 % 1018,3 hPa 0,0 l/m 1,0 km/h (0 Bft) S-SW 0,00 h 0,000 mm 0,0 UV-I 0 W/m 10,5 C 12,4 C 2,2 km/h (1 Bft) 98,74 %
08.07.2016 04:00 11,7 C 90 % 1018,0 hPa 0,0 l/m 0,1 km/h (0 Bft) S-SW 0,00 h 0,000 mm 0,0 UV-I 0 W/m 10,0 C 11,7 C 0,6 km/h (0 Bft) 98,86 %
08.07.2016 05:00 11,5 C 91 % 1018,2 hPa 0,0 l/m 0,9 km/h (0 Bft) S-SW 0,13 h 0,000 mm 0,0 UV-I 16 W/m 10,0 C 11,5 C 1,7 km/h (1 Bft) 98,57 %
08.07.2016 06:00 12,4 C 90 % 1018,0 hPa 0,0 l/m 0,6 km/h (0 Bft) S-SW 0,00 h 0,000 mm 0,0 UV-I 56 W/m 10,9 C 12,4 C 1,3 km/h (1 Bft) 99,04 %
08.07.2016 07:00 14,7 C 86 % 1018,0 hPa 0,0 l/m 2,3 km/h (1 Bft) N-NO 1,00 h 0,026 mm 0,7 UV-I 239 W/m 12,3 C 14,7 C 4,5 km/h (1 Bft) 98,19 %
08.07.2016 08:00 17,0 C 77 % 1017,9 hPa 0,0 l/m 3,9 km/h (1 Bft) O-NO 1,00 h 0,127 mm 1,5 UV-I 421 W/m 12,9 C 17,0 C 6,5 km/h (2 Bft) 98,72 %
08.07.2016 09:00 19,3 C 68 % 1017,8 hPa 0,0 l/m 4,2 km/h (1 Bft) NO 0,93 h 0,254 mm 2,6 UV-I 476 W/m 13,2 C 19,2 C 7,3 km/h (2 Bft) 98,63 %
08.07.2016 10:00 20,9 C 62 % 1017,4 hPa 0,0 l/m 5,4 km/h (1 Bft) NO 1,00 h 0,305 mm 3,9 UV-I 650 W/m 13,3 C 20,9 C 9,2 km/h (2 Bft) 98,75 %
08.07.2016 11:00 22,4 C 58 % 1017,1 hPa 0,0 l/m 4,1 km/h (1 Bft) NO 0,97 h 0,406 mm 5,0 UV-I 726 W/m 13,8 C 22,3 C 8,0 km/h (2 Bft) 98,65 %
08.07.2016 12:00 23,7 C 53 % 1016,6 hPa 0,0 l/m 3,5 km/h (1 Bft) N-NO 0,87 h 0,457 mm 5,4 UV-I 758 W/m 13,5 C 23,6 C 7,1 km/h (2 Bft) 98,79 %
08.07.2016 13:00 24,8 C 49 % 1016,1 hPa 0,0 l/m 3,3 km/h (1 Bft) N-NO 1,00 h 0,483 mm 6,3 UV-I 885 W/m 13,4 C 24,8 C 6,5 km/h (2 Bft) 98,87 %
08.07.2016 14:00 26,1 C 46 % 1015,7 hPa 0,0 l/m 4,8 km/h (1 Bft) W-SW 1,00 h 0,584 mm 5,9 UV-I 850 W/m 13,4 C 26,0 C 9,0 km/h (2 Bft) 98,10 %
08.07.2016 15:00 26,7 C 43 % 1015,1 hPa 0,0 l/m 4,7 km/h (1 Bft) W-SW 1,00 h 0,584 mm 4,4 UV-I 715 W/m 13,0 C 26,7 C 9,9 km/h (2 Bft) 99,35 %
08.07.2016 16:00 27,2 C 43 % 1014,6 hPa 0,0 l/m 5,0 km/h (1 Bft) W-SW 1,00 h 0,508 mm 3,0 UV-I 591 W/m 13,4 C 27,1 C 9,6 km/h (2 Bft) 97,97 %
08.07.2016 17:00 27,3 C 45 % 1014,4 hPa 0,0 l/m 3,9 km/h (1 Bft) N-NW 0,77 h 0,432 mm 1,7 UV-I 456 W/m 14,3 C 27,2 C 8,2 km/h (2 Bft) 99,62 %
08.07.2016 18:00 25,8 C 53 % 1014,2 hPa 0,0 l/m 1,9 km/h (1 Bft) N-NO 0,07 h 0,330 mm 0,7 UV-I 160 W/m 15,3 C 25,8 C 4,1 km/h (1 Bft) 97,66 %
08.07.2016 19:00 25,2 C 56 % 1014,0 hPa 0,0 l/m 2,5 km/h (1 Bft) N-NO 0,00 h 0,127 mm 0,0 UV-I 86 W/m 15,8 C 25,2 C 3,9 km/h (1 Bft) 98,08 %
08.07.2016 20:00 23,1 C 65 % 1013,9 hPa 0,0 l/m 0,5 km/h (0 Bft) N-NO 0,03 h 0,076 mm 0,0 UV-I 29 W/m 16,1 C 23,1 C 1,5 km/h (1 Bft) 98,04 %
08.07.2016 21:00 20,9 C 74 % 1014,3 hPa 0,0 l/m 0,8 km/h (0 Bft) SO 0,00 h 0,026 mm 0,0 UV-I 5 W/m 16,0 C 20,9 C 1,8 km/h (1 Bft) 99,33 %
08.07.2016 22:00 20,2 C 74 % 1014,6 hPa 0,0 l/m 3,8 km/h (1 Bft) S 0,00 h 0,000 mm 0,0 UV-I 0 W/m 15,3 C 20,2 C 5,8 km/h (2 Bft) 97,92 %
08.07.2016 23:00 20,1 C 75 % 1014,9 hPa 0,0 l/m 5,4 km/h (1 Bft) S 0,00 h 0,025 mm 0,0 UV-I 0 W/m 15,5 C 20,1 C 8,2 km/h (2 Bft) 98,93 %
09.07.2016 00:00 19,6 C 78 % 1015,1 hPa 0,0 l/m 7,1 km/h (2 Bft) SW 0,00 h 0,000 mm 0,0 UV-I 0 W/m 15,6 C 19,2 C 10,6 km/h (2 Bft) 98,18 %
09.07.2016 01:00 19,7 C 77 % 1015,5 hPa 0,0 l/m 7,6 km/h (2 Bft) SW 0,00 h 0,025 mm 0,0 UV-I 0 W/m 15,6 C 19,3 C 11,8 km/h (2 Bft) 99,25 %
09.07.2016 02:00 19,7 C 73 % 1015,8 hPa 0,2 l/m 8,9 km/h (2 Bft) SW 0,00 h 0,026 mm 0,0 UV-I 0 W/m 14,7 C 18,8 C 13,6 km/h (3 Bft) 98,35 %
09.07.2016 03:00 18,6 C 81 % 1016,2 hPa 0,4 l/m 7,2 km/h (2 Bft) SW 0,00 h 0,051 mm 0,0 UV-I 0 W/m 15,3 C 18,0 C 11,2 km/h (2 Bft) 99,71 %
09.07.2016 04:00 18,5 C 81 % 1016,0 hPa 0,0 l/m 9,5 km/h (2 Bft) S-SW 0,00 h 0,025 mm 0,0 UV-I 0 W/m 15,2 C 17,2 C 15,1 km/h (3 Bft) 97,45 %
09.07.2016 05:00 18,3 C 83 % 1016,0 hPa 0,2 l/m 6,9 km/h (2 Bft) S 0,00 h 0,025 mm 0,0 UV-I 6 W/m 15,4 C 17,8 C 11,2 km/h (2 Bft) 99,41 %
09.07.2016 06:00 17,4 C 90 % 1016,9 hPa 0,2 l/m 5,1 km/h (1 Bft) W-SW 0,00 h 0,026 mm 0,0 UV-I 13 W/m 15,8 C 17,3 C 8,5 km/h (2 Bft) 97,83 %
09.07.2016 07:00 17,5 C 92 % 1017,4 hPa 0,0 l/m 3,5 km/h (1 Bft) S-SW 0,00 h 0,025 mm 0,5 UV-I 81 W/m 16,2 C 17,5 C 5,9 km/h (2 Bft) 99,50 %
09.07.2016 08:00 18,4 C 89 % 1017,6 hPa 0,0 l/m 6,1 km/h (2 Bft) W-SW 0,00 h 0,051 mm 0,7 UV-I 130 W/m 16,6 C 18,3 C 9,7 km/h (2 Bft) 97,65 %
09.07.2016 09:00 20,0 C 83 % 1017,6 hPa 0,0 l/m 7,7 km/h (2 Bft) SW 0,67 h 0,076 mm 2,4 UV-I 421 W/m 16,9 C 19,3 C 12,5 km/h (3 Bft) 99,57 %
09.07.2016 10:00 21,6 C 73 % 1017,7 hPa 0,0 l/m 9,4 km/h (2 Bft) W-SW 0,60 h 0,280 mm 3,3 UV-I 531 W/m 16,5 C 20,6 C 15,3 km/h (3 Bft) 97,86 %
09.07.2016 11:00 23,1 C 69 % 1017,8 hPa 0,0 l/m 7,9 km/h (2 Bft) W-SW 0,67 h 0,355 mm 4,7 UV-I 697 W/m 17,2 C 22,6 C 14,9 km/h (3 Bft) 99,41 %
09.07.2016 12:00 24,9 C 58 % 1017,5 hPa 0,0 l/m 10,8 km/h (2 Bft) W 0,87 h 0,457 mm 5,6 UV-I 839 W/m 16,1 C 24,0 C 18,9 km/h (3 Bft) 97,50 %
09.07.2016 13:00 25,1 C 57 % 1017,3 hPa 0,0 l/m 8,3 km/h (2 Bft) W-SW 0,90 h 0,559 mm 6,1 UV-I 827 W/m 16,1 C 24,6 C 16,1 km/h (3 Bft) 98,93 %
09.07.2016 14:00 26,0 C 53 % 1016,8 hPa 0,0 l/m 8,1 km/h (2 Bft) SW 0,90 h 0,584 mm 5,6 UV-I 802 W/m 15,6 C 25,5 C 16,0 km/h (3 Bft) 97,88 %
09.07.2016 15:00 26,5 C 49 % 1016,5 hPa 0,0 l/m 8,7 km/h (2 Bft) W-SW 0,83 h 0,559 mm 4,1 UV-I 669 W/m 14,9 C 26,0 C 16,1 km/h (3 Bft) 99,35 %
09.07.2016 16:00 26,9 C 47 % 1016,4 hPa 0,0 l/m 7,5 km/h (2 Bft) W 0,87 h 0,483 mm 3,2 UV-I 597 W/m 14,6 C 26,6 C 15,6 km/h (3 Bft) 97,77 %
09.07.2016 17:00 26,6 C 49 % 1016,1 hPa 0,0 l/m 5,0 km/h (1 Bft) W-SW 0,87 h 0,432 mm 1,8 UV-I 445 W/m 14,9 C 26,5 C 11,9 km/h (2 Bft) 98,61 %
09.07.2016 18:00 26,3 C 48 % 1015,8 hPa 0,0 l/m 5,4 km/h (1 Bft) W-SW 1,00 h 0,330 mm 0,9 UV-I 325 W/m 14,5 C 26,2 C 11,6 km/h (2 Bft) 98,45 %
09.07.2016 19:00 25,6 C 52 % 1015,7 hPa 0,0 l/m 3,1 km/h (1 Bft) W 0,83 h 0,254 mm 0,4 UV-I 150 W/m 14,8 C 25,6 C 7,3 km/h (2 Bft) 98,64 %
09.07.2016 20:00 24,0 C 59 % 1016,0 hPa 0,0 l/m 1,0 km/h (0 Bft) W-NW 0,23 h 0,127 mm 0,0 UV-I 34 W/m 15,3 C 24,0 C 3,1 km/h (1 Bft) 98,75 %
09.07.2016 21:00 22,8 C 63 % 1016,4 hPa 0,0 l/m 0,5 km/h (0 Bft) NW 0,00 h 0,025 mm 0,0 UV-I 4 W/m 15,4 C 22,8 C 2,0 km/h (1 Bft) 98,49 %
09.07.2016 22:00 21,8 C 69 % 1016,8 hPa 0,0 l/m 1,1 km/h (1 Bft) SW 0,00 h 0,026 mm 0,0 UV-I 0 W/m 15,8 C 21,8 C 2,8 km/h (1 Bft) 98,88 %
09.07.2016 23:00 21,5 C 72 % 1016,9 hPa 0,0 l/m 1,9 km/h (1 Bft) SW 0,00 h 0,025 mm 0,0 UV-I 0 W/m 16,2 C 21,5 C 3,6 km/h (1 Bft) 98,68 %
10.07.2016 00:00 20,4 C 77 % 1016,8 hPa 0,0 l/m 2,8 km/h (1 Bft) SW 0,00 h 0,000 mm 0,0 UV-I 0 W/m 16,1 C 20,4 C 4,8 km/h (1 Bft) 98,77 %
10.07.2016 01:00 19,2 C 81 % 1016,6 hPa 0,0 l/m 4,3 km/h (1 Bft) S 0,00 h 0,025 mm 0,0 UV-I 0 W/m 15,9 C 19,2 C 6,5 km/h (2 Bft) 98,33 %
10.07.2016 02:00 18,1 C 85 % 1016,5 hPa 0,0 l/m 2,5 km/h (1 Bft) S-SW 0,00 h 0,026 mm 0,0 UV-I 0 W/m 15,5 C 18,1 C 3,8 km/h (1 Bft) 98,82 %
10.07.2016 03:00 17,3 C 88 % 1016,2 hPa 0,0 l/m 0,5 km/h (0 Bft) S-SW 0,00 h 0,000 mm 0,0 UV-I 0 W/m 15,2 C 17,3 C 1,1 km/h (0 Bft) 98,31 %
10.07.2016 04:00 17,2 C 89 % 1016,2 hPa 0,0 l/m 0,1 km/h (0 Bft) N 0,00 h 0,000 mm 0,0 UV-I 0 W/m 15,3 C 17,2 C 0,3 km/h (0 Bft) 98,65 %
10.07.2016 05:00 17,2 C 89 % 1016,2 hPa 0,0 l/m 0,1 km/h (0 Bft) N 0,00 h 0,000 mm 0,0 UV-I 11 W/m 15,4 C 17,2 C 0,4 km/h (0 Bft) 98,72 %
10.07.2016 06:00 17,6 C 89 % 1016,5 hPa 0,0 l/m 0,2 km/h (0 Bft) N 0,03 h 0,000 mm 0,0 UV-I 55 W/m 15,9 C 17,6 C 0,9 km/h (0 Bft) 98,69 %
10.07.2016 07:00 19,2 C 83 % 1016,6 hPa 0,0 l/m 0,9 km/h (0 Bft) S 1,00 h 0,025 mm 0,7 UV-I 222 W/m 16,3 C 19,2 C 2,3 km/h (1 Bft) 98,71 %
10.07.2016 08:00 21,0 C 76 % 1016,6 hPa 0,0 l/m 2,4 km/h (1 Bft) NO 1,00 h 0,127 mm 1,6 UV-I 402 W/m 16,6 C 21,0 C 5,0 km/h (1 Bft) 99,43 %
10.07.2016 09:00 22,8 C 70 % 1016,4 hPa 0,0 l/m 4,4 km/h (1 Bft) O 1,00 h 0,254 mm 2,9 UV-I 498 W/m 17,0 C 22,8 C 8,4 km/h (2 Bft) 98,13 %
10.07.2016 10:00 24,5 C 64 % 1015,9 hPa 0,0 l/m 6,1 km/h (2 Bft) NO 1,00 h 0,330 mm 4,5 UV-I 692 W/m 17,3 C 24,3 C 10,6 km/h (2 Bft) 99,43 %
10.07.2016 11:00 25,8 C 59 % 1015,5 hPa 0,0 l/m 7,0 km/h (2 Bft) NO 1,00 h 0,458 mm 6,0 UV-I 792 W/m 17,2 C 25,5 C 12,7 km/h (3 Bft) 98,02 %
10.07.2016 12:00 27,0 C 54 % 1015,0 hPa 0,0 l/m 7,1 km/h (2 Bft) NO 1,00 h 0,533 mm 6,9 UV-I 852 W/m 17,0 C 26,7 C 13,0 km/h (3 Bft) 99,35 %
10.07.2016 13:00 28,2 C 49 % 1014,1 hPa 0,0 l/m 8,6 km/h (2 Bft) NO 1,00 h 0,584 mm 7,1 UV-I 869 W/m 16,3 C 27,8 C 15,1 km/h (3 Bft) 98,37 %
10.07.2016 14:00 29,1 C 46 % 1013,3 hPa 0,0 l/m 10,4 km/h (2 Bft) O-NO 1,00 h 0,635 mm 6,4 UV-I 832 W/m 16,3 C 28,7 C 17,1 km/h (3 Bft) 99,11 %
10.07.2016 15:00 29,7 C 46 % 1012,5 hPa 0,0 l/m 11,7 km/h (2 Bft) NO 1,00 h 0,635 mm 5,1 UV-I 757 W/m 16,8 C 29,3 C 18,6 km/h (3 Bft) 97,97 %
10.07.2016 16:00 30,1 C 47 % 1011,8 hPa 0,0 l/m 14,4 km/h (3 Bft) NO 1,00 h 0,610 mm 3,5 UV-I 647 W/m 17,5 C 29,5 C 21,5 km/h (4 Bft) 99,62 %
10.07.2016 17:00 29,9 C 46 % 1011,1 hPa 0,0 l/m 14,6 km/h (3 Bft) NO 1,00 h 0,559 mm 2,0 UV-I 472 W/m 17,1 C 29,3 C 21,4 km/h (4 Bft) 98,09 %
10.07.2016 18:00 29,7 C 47 % 1010,6 hPa 0,0 l/m 12,7 km/h (3 Bft) NO 1,00 h 0,457 mm 0,9 UV-I 336 W/m 17,3 C 29,1 C 19,6 km/h (3 Bft) 98,97 %
10.07.2016 19:00 28,9 C 49 % 1010,3 hPa 0,0 l/m 10,4 km/h (2 Bft) NO 0,97 h 0,330 mm 0,5 UV-I 154 W/m 16,9 C 28,4 C 16,6 km/h (3 Bft) 98,31 %
10.07.2016 20:00 26,7 C 54 % 1010,1 hPa 0,0 l/m 7,4 km/h (2 Bft) O-NO 0,00 h 0,203 mm 0,0 UV-I 26 W/m 16,7 C 26,4 C 11,9 km/h (2 Bft) 99,41 %
10.07.2016 21:00 24,4 C 63 % 1010,0 hPa 0,0 l/m 2,1 km/h (1 Bft) NO 0,00 h 0,076 mm 0,0 UV-I 0 W/m 16,9 C 24,4 C 3,7 km/h (1 Bft) 97,76 %
10.07.2016 22:00 22,9 C 71 % 1010,2 hPa 0,0 l/m 1,5 km/h (1 Bft) NO 0,00 h 0,026 mm 0,0 UV-I 0 W/m 17,3 C 22,9 C 2,5 km/h (1 Bft) 99,49 %
10.07.2016 23:00 21,8 C 76 % 1010,4 hPa 0,0 l/m 3,9 km/h (1 Bft) S-SW 0,00 h 0,025 mm 0,0 UV-I 0 W/m 17,4 C 21,8 C 6,4 km/h (2 Bft) 97,88 %
Min-Datum _ 08.07.16 05.07.16 10.07.16 - 04.07.16 - - - - - 06.07.16 08.07.16 04.07.16 04.07.16
_ Min-Zeit 05:02 16:52 21:22 - 01:50 - - - - - 21:16 05:02 01:50 00:02
Minimum _ 11,3 C 40 % 1009,9 hPa - 0,0 km/h (0 Bft) - - - - - 7,7 C 11,3 C 0,0 km/h (0 Bft) 14,29 %
Max-Datum _ 10.07.16 05.07.16 04.07.16 09.07.16 06.07.16 - 05.07.16 10.07.16 05.07.16 06.07.16 10.07.16 10.07.16 06.07.16 04.07.16
_ Max-Zeit 16:28 04:18 00:20 03:00 14:48 - 15:48 14:02 13:06 13:50 16:44 16:00 14:44 00:00
Maximum _ 30,4 C 94 % 1021,8 hPa 0,4 l/m 29,2 km/h
W-SW (5 Bft)
- 0,07 h 0,635 mm 7,9 UV-I 1124 W/m 18,6 C 29,8 C 46,7 km/h
W (6 Bft)
100,00 %
Durchschnitt _ 20,5 C 66 % 1016,6 hPa #1,0 l/m 4,9 km/h (1 Bft) W-SW #75:08 h #34,824 mm 3,3 UV-I 414 W/m 13,5 C 20,2 C 8,7 km/h (2 Bft) 98,37 %